sensor_id;sensor_type;location;lat;lon;timestamp;P1;durP1;ratioP1;P2;durP2;ratioP2
6203;SDS011;3135;42.602;23.468;2022-08-18T00:01:38;3.40;;;2.50;;
6203;SDS011;3135;42.602;23.468;2022-08-18T00:04:08;3.58;;;3.10;;
6203;SDS011;3135;42.602;23.468;2022-08-18T00:06:35;3.47;;;3.08;;
6203;SDS011;3135;42.602;23.468;2022-08-18T00:09:02;4.50;;;2.70;;
6203;SDS011;3135;42.602;23.468;2022-08-18T00:11:32;2.67;;;2.47;;
6203;SDS011;3135;42.602;23.468;2022-08-18T00:14:03;2.70;;;2.33;;
6203;SDS011;3135;42.602;23.468;2022-08-18T00:16:30;4.23;;;2.70;;
6203;SDS011;3135;42.602;23.468;2022-08-18T00:18:55;4.03;;;2.87;;
6203;SDS011;3135;42.602;23.468;2022-08-18T00:21:21;3.17;;;2.87;;
6203;SDS011;3135;42.602;23.468;2022-08-18T00:23:46;2.83;;;2.42;;
6203;SDS011;3135;42.602;23.468;2022-08-18T00:26:11;2.73;;;2.53;;
6203;SDS011;3135;42.602;23.468;2022-08-18T00:28:37;3.33;;;2.70;;
6203;SDS011;3135;42.602;23.468;2022-08-18T00:31:04;2.78;;;2.58;;
6203;SDS011;3135;42.602;23.468;2022-08-18T00:33:30;3.20;;;2.90;;
6203;SDS011;3135;42.602;23.468;2022-08-18T00:35:55;2.90;;;2.60;;
6203;SDS011;3135;42.602;23.468;2022-08-18T00:38:21;5.17;;;2.70;;
6203;SDS011;3135;42.602;23.468;2022-08-18T00:40:47;2.70;;;2.50;;
6203;SDS011;3135;42.602;23.468;2022-08-18T00:46:09;3.33;;;2.95;;
6203;SDS011;3135;42.602;23.468;2022-08-18T00:48:40;4.45;;;2.67;;
6203;SDS011;3135;42.602;23.468;2022-08-18T00:51:07;3.40;;;3.10;;
6203;SDS011;3135;42.602;23.468;2022-08-18T00:56:42;4.22;;;3.00;;
6203;SDS011;3135;42.602;23.468;2022-08-18T00:59:13;3.45;;;3.03;;
6203;SDS011;3135;42.602;23.468;2022-08-18T01:01:44;3.25;;;2.85;;
6203;SDS011;3135;42.602;23.468;2022-08-18T01:04:48;4.10;;;2.90;;
6203;SDS011;3135;42.602;23.468;2022-08-18T01:07:17;3.97;;;3.10;;
6203;SDS011;3135;42.602;23.468;2022-08-18T01:09:48;5.93;;;3.13;;
6203;SDS011;3135;42.602;23.468;2022-08-18T01:12:15;5.90;;;3.30;;
6203;SDS011;3135;42.602;23.468;2022-08-18T01:14:41;3.28;;;2.85;;
6203;SDS011;3135;42.602;23.468;2022-08-18T01:17:07;4.13;;;2.95;;
6203;SDS011;3135;42.602;23.468;2022-08-18T01:19:51;3.67;;;2.95;;
6203;SDS011;3135;42.602;23.468;2022-08-18T01:25:13;4.50;;;3.10;;
6203;SDS011;3135;42.602;23.468;2022-08-18T01:28:00;4.03;;;2.97;;
6203;SDS011;3135;42.602;23.468;2022-08-18T01:30:27;3.20;;;3.00;;
6203;SDS011;3135;42.602;23.468;2022-08-18T01:32:54;3.13;;;2.78;;
6203;SDS011;3135;42.602;23.468;2022-08-18T01:35:21;5.53;;;3.15;;
6203;SDS011;3135;42.602;23.468;2022-08-18T01:37:49;5.93;;;3.10;;
6203;SDS011;3135;42.602;23.468;2022-08-18T01:40:16;4.65;;;3.25;;
6203;SDS011;3135;42.602;23.468;2022-08-18T01:42:48;4.90;;;3.60;;
6203;SDS011;3135;42.602;23.468;2022-08-18T01:45:14;4.78;;;3.30;;
6203;SDS011;3135;42.602;23.468;2022-08-18T01:47:42;3.17;;;2.88;;
6203;SDS011;3135;42.602;23.468;2022-08-18T01:50:08;3.40;;;3.10;;
6203;SDS011;3135;42.602;23.468;2022-08-18T01:52:37;4.30;;;3.08;;
6203;SDS011;3135;42.602;23.468;2022-08-18T01:55:03;3.67;;;3.08;;
6203;SDS011;3135;42.602;23.468;2022-08-18T01:57:30;4.10;;;3.08;;
6203;SDS011;3135;42.602;23.468;2022-08-18T01:59:55;3.23;;;3.03;;
6203;SDS011;3135;42.602;23.468;2022-08-18T02:02:25;3.42;;;3.10;;
6203;SDS011;3135;42.602;23.468;2022-08-18T02:04:58;4.97;;;3.03;;
6203;SDS011;3135;42.602;23.468;2022-08-18T02:07:27;4.07;;;3.43;;
6203;SDS011;3135;42.602;23.468;2022-08-18T02:09:53;3.07;;;2.87;;
6203;SDS011;3135;42.602;23.468;2022-08-18T02:12:19;3.53;;;3.23;;
6203;SDS011;3135;42.602;23.468;2022-08-18T02:14:44;4.37;;;3.40;;
6203;SDS011;3135;42.602;23.468;2022-08-18T02:17:10;3.80;;;3.50;;
6203;SDS011;3135;42.602;23.468;2022-08-18T02:19:39;3.95;;;3.33;;
6203;SDS011;3135;42.602;23.468;2022-08-18T02:22:07;4.38;;;2.90;;
6203;SDS011;3135;42.602;23.468;2022-08-18T02:24:34;3.50;;;3.13;;
6203;SDS011;3135;42.602;23.468;2022-08-18T02:27:00;4.60;;;3.50;;
6203;SDS011;3135;42.602;23.468;2022-08-18T02:29:26;4.33;;;3.60;;
6203;SDS011;3135;42.602;23.468;2022-08-18T02:31:52;3.90;;;3.30;;
6203;SDS011;3135;42.602;23.468;2022-08-18T02:34:17;4.23;;;3.47;;
6203;SDS011;3135;42.602;23.468;2022-08-18T02:36:43;5.28;;;3.50;;
6203;SDS011;3135;42.602;23.468;2022-08-18T02:39:09;5.07;;;3.70;;
6203;SDS011;3135;42.602;23.468;2022-08-18T02:41:35;4.80;;;3.72;;
6203;SDS011;3135;42.602;23.468;2022-08-18T02:44:01;5.53;;;4.03;;
6203;SDS011;3135;42.602;23.468;2022-08-18T02:46:28;3.58;;;3.28;;
6203;SDS011;3135;42.602;23.468;2022-08-18T02:48:54;3.83;;;3.45;;
6203;SDS011;3135;42.602;23.468;2022-08-18T02:51:20;4.30;;;3.70;;
6203;SDS011;3135;42.602;23.468;2022-08-18T02:53:46;4.25;;;3.45;;
6203;SDS011;3135;42.602;23.468;2022-08-18T02:56:16;6.32;;;3.20;;
6203;SDS011;3135;42.602;23.468;2022-08-18T02:58:49;5.57;;;3.72;;
6203;SDS011;3135;42.602;23.468;2022-08-18T03:01:21;10.70;;;4.22;;
6203;SDS011;3135;42.602;23.468;2022-08-18T03:03:50;6.30;;;3.83;;
6203;SDS011;3135;42.602;23.468;2022-08-18T03:06:16;3.72;;;3.30;;
6203;SDS011;3135;42.602;23.468;2022-08-18T03:08:43;5.60;;;3.70;;
6203;SDS011;3135;42.602;23.468;2022-08-18T03:11:14;8.07;;;4.50;;
6203;SDS011;3135;42.602;23.468;2022-08-18T03:13:41;4.95;;;4.03;;
6203;SDS011;3135;42.602;23.468;2022-08-18T03:16:07;5.15;;;4.00;;
6203;SDS011;3135;42.602;23.468;2022-08-18T03:18:32;4.73;;;4.20;;
6203;SDS011;3135;42.602;23.468;2022-08-18T03:21:03;6.28;;;4.47;;
6203;SDS011;3135;42.602;23.468;2022-08-18T03:23:30;6.83;;;4.50;;
6203;SDS011;3135;42.602;23.468;2022-08-18T03:25:55;6.50;;;3.87;;
6203;SDS011;3135;42.602;23.468;2022-08-18T03:28:21;4.77;;;3.93;;
6203;SDS011;3135;42.602;23.468;2022-08-18T03:30:46;6.03;;;4.07;;
6203;SDS011;3135;42.602;23.468;2022-08-18T03:33:12;5.90;;;4.20;;
6203;SDS011;3135;42.602;23.468;2022-08-18T03:35:37;6.53;;;4.23;;
6203;SDS011;3135;42.602;23.468;2022-08-18T03:38:05;8.13;;;4.63;;
6203;SDS011;3135;42.602;23.468;2022-08-18T03:40:30;4.47;;;3.88;;
6203;SDS011;3135;42.602;23.468;2022-08-18T03:42:56;6.07;;;4.27;;
6203;SDS011;3135;42.602;23.468;2022-08-18T03:45:21;4.30;;;3.87;;
6203;SDS011;3135;42.602;23.468;2022-08-18T03:47:48;7.00;;;3.97;;
6203;SDS011;3135;42.602;23.468;2022-08-18T03:50:16;4.70;;;4.20;;
6203;SDS011;3135;42.602;23.468;2022-08-18T03:52:43;5.88;;;4.00;;
6203;SDS011;3135;42.602;23.468;2022-08-18T03:55:13;5.95;;;4.20;;
6203;SDS011;3135;42.602;23.468;2022-08-18T03:57:40;5.57;;;4.40;;
6203;SDS011;3135;42.602;23.468;2022-08-18T04:00:10;5.70;;;4.20;;
6203;SDS011;3135;42.602;23.468;2022-08-18T04:02:36;7.07;;;4.15;;
6203;SDS011;3135;42.602;23.468;2022-08-18T04:05:02;7.07;;;4.27;;
6203;SDS011;3135;42.602;23.468;2022-08-18T04:07:28;5.63;;;4.15;;
6203;SDS011;3135;42.602;23.468;2022-08-18T04:09:53;6.57;;;4.17;;
6203;SDS011;3135;42.602;23.468;2022-08-18T04:12:18;7.00;;;4.53;;
6203;SDS011;3135;42.602;23.468;2022-08-18T04:14:45;6.77;;;4.20;;
6203;SDS011;3135;42.602;23.468;2022-08-18T04:17:12;8.73;;;4.55;;
6203;SDS011;3135;42.602;23.468;2022-08-18T04:19:38;10.15;;;4.57;;
6203;SDS011;3135;42.602;23.468;2022-08-18T04:22:03;8.23;;;4.95;;
6203;SDS011;3135;42.602;23.468;2022-08-18T04:24:30;7.20;;;4.82;;
6203;SDS011;3135;42.602;23.468;2022-08-18T04:26:57;5.78;;;4.50;;
6203;SDS011;3135;42.602;23.468;2022-08-18T04:29:24;6.72;;;4.47;;
6203;SDS011;3135;42.602;23.468;2022-08-18T04:31:50;10.93;;;4.20;;
6203;SDS011;3135;42.602;23.468;2022-08-18T04:34:17;5.93;;;4.00;;
6203;SDS011;3135;42.602;23.468;2022-08-18T04:36:44;7.10;;;4.37;;
6203;SDS011;3135;42.602;23.468;2022-08-18T04:39:10;5.30;;;4.80;;
6203;SDS011;3135;42.602;23.468;2022-08-18T04:41:37;6.03;;;4.72;;
6203;SDS011;3135;42.602;23.468;2022-08-18T04:44:05;6.77;;;5.07;;
6203;SDS011;3135;42.602;23.468;2022-08-18T04:46:42;7.30;;;4.78;;
6203;SDS011;3135;42.602;23.468;2022-08-18T04:49:11;7.05;;;5.25;;
6203;SDS011;3135;42.602;23.468;2022-08-18T04:51:43;7.75;;;4.90;;
6203;SDS011;3135;42.602;23.468;2022-08-18T04:54:34;9.63;;;5.60;;
6203;SDS011;3135;42.602;23.468;2022-08-18T04:57:12;7.65;;;5.22;;
6203;SDS011;3135;42.602;23.468;2022-08-18T04:59:41;9.53;;;6.17;;
6203;SDS011;3135;42.602;23.468;2022-08-18T05:02:08;11.68;;;6.22;;
6203;SDS011;3135;42.602;23.468;2022-08-18T05:04:35;10.23;;;6.45;;
6203;SDS011;3135;42.602;23.468;2022-08-18T05:07:03;9.98;;;5.38;;
6203;SDS011;3135;42.602;23.468;2022-08-18T05:09:32;9.32;;;6.07;;
6203;SDS011;3135;42.602;23.468;2022-08-18T05:12:00;9.85;;;6.10;;
6203;SDS011;3135;42.602;23.468;2022-08-18T05:14:26;8.60;;;6.00;;
6203;SDS011;3135;42.602;23.468;2022-08-18T05:16:52;7.35;;;5.47;;
6203;SDS011;3135;42.602;23.468;2022-08-18T05:19:19;8.10;;;5.68;;
6203;SDS011;3135;42.602;23.468;2022-08-18T05:21:47;6.97;;;5.60;;
6203;SDS011;3135;42.602;23.468;2022-08-18T05:24:14;10.38;;;6.15;;
6203;SDS011;3135;42.602;23.468;2022-08-18T05:26:39;8.35;;;5.82;;
6203;SDS011;3135;42.602;23.468;2022-08-18T05:29:05;9.98;;;6.13;;
6203;SDS011;3135;42.602;23.468;2022-08-18T05:31:32;9.98;;;5.75;;
6203;SDS011;3135;42.602;23.468;2022-08-18T05:33:58;31.55;;;9.35;;
6203;SDS011;3135;42.602;23.468;2022-08-18T05:37:10;9.02;;;5.60;;
6203;SDS011;3135;42.602;23.468;2022-08-18T05:40:03;9.98;;;6.00;;
6203;SDS011;3135;42.602;23.468;2022-08-18T05:42:34;10.93;;;6.22;;
6203;SDS011;3135;42.602;23.468;2022-08-18T05:45:01;8.88;;;5.95;;
6203;SDS011;3135;42.602;23.468;2022-08-18T05:47:29;8.65;;;5.80;;
6203;SDS011;3135;42.602;23.468;2022-08-18T05:49:57;13.50;;;6.40;;
6203;SDS011;3135;42.602;23.468;2022-08-18T05:52:36;10.82;;;6.28;;
6203;SDS011;3135;42.602;23.468;2022-08-18T05:55:06;8.82;;;6.15;;
6203;SDS011;3135;42.602;23.468;2022-08-18T05:58:04;10.43;;;6.18;;
6203;SDS011;3135;42.602;23.468;2022-08-18T06:00:34;8.25;;;5.95;;
6203;SDS011;3135;42.602;23.468;2022-08-18T06:03:04;10.93;;;6.43;;
6203;SDS011;3135;42.602;23.468;2022-08-18T06:05:39;16.90;;;6.90;;
6203;SDS011;3135;42.602;23.468;2022-08-18T06:08:14;11.95;;;6.22;;
6203;SDS011;3135;42.602;23.468;2022-08-18T06:10:45;10.77;;;5.82;;
6203;SDS011;3135;42.602;23.468;2022-08-18T06:13:12;9.25;;;5.88;;
6203;SDS011;3135;42.602;23.468;2022-08-18T06:15:48;10.27;;;5.53;;
6203;SDS011;3135;42.602;23.468;2022-08-18T06:27:09;6.82;;;5.18;;
6203;SDS011;3135;42.602;23.468;2022-08-18T06:35:10;9.95;;;5.10;;
6203;SDS011;3135;42.602;23.468;2022-08-18T06:40:51;10.07;;;5.53;;
6203;SDS011;3135;42.602;23.468;2022-08-18T06:43:25;8.23;;;5.60;;
6203;SDS011;3135;42.602;23.468;2022-08-18T06:45:52;10.98;;;5.53;;
6203;SDS011;3135;42.602;23.468;2022-08-18T06:50:55;10.93;;;5.50;;
6203;SDS011;3135;42.602;23.468;2022-08-18T06:53:48;7.22;;;5.50;;
6203;SDS011;3135;42.602;23.468;2022-08-18T06:56:26;12.23;;;5.72;;
6203;SDS011;3135;42.602;23.468;2022-08-18T06:59:23;7.28;;;5.20;;
6203;SDS011;3135;42.602;23.468;2022-08-18T07:01:55;9.77;;;4.90;;
6203;SDS011;3135;42.602;23.468;2022-08-18T07:04:32;6.90;;;5.10;;
6203;SDS011;3135;42.602;23.468;2022-08-18T07:07:35;7.70;;;5.30;;
6203;SDS011;3135;42.602;23.468;2022-08-18T07:09:55;6.20;;;4.90;;
6203;SDS011;3135;42.602;23.468;2022-08-18T07:12:22;9.70;;;5.00;;
6203;SDS011;3135;42.602;23.468;2022-08-18T07:14:54;6.57;;;5.20;;
6203;SDS011;3135;42.602;23.468;2022-08-18T07:17:23;6.13;;;4.55;;
6203;SDS011;3135;42.602;23.468;2022-08-18T07:25:36;7.13;;;4.90;;
6203;SDS011;3135;42.602;23.468;2022-08-18T07:28:05;7.18;;;4.78;;
6203;SDS011;3135;42.602;23.468;2022-08-18T07:35:35;6.57;;;4.63;;
6203;SDS011;3135;42.602;23.468;2022-08-18T07:40:53;5.88;;;4.75;;
6203;SDS011;3135;42.602;23.468;2022-08-18T07:49:03;7.45;;;4.75;;
6203;SDS011;3135;42.602;23.468;2022-08-18T07:54:38;9.40;;;5.28;;
6203;SDS011;3135;42.602;23.468;2022-08-18T08:00:13;6.95;;;4.78;;
6203;SDS011;3135;42.602;23.468;2022-08-18T08:13:47;5.63;;;4.90;;
6203;SDS011;3135;42.602;23.468;2022-08-18T08:22:27;5.53;;;4.90;;
6203;SDS011;3135;42.602;23.468;2022-08-18T08:25:25;7.82;;;5.88;;
6203;SDS011;3135;42.602;23.468;2022-08-18T08:27:59;6.45;;;4.53;;
6203;SDS011;3135;42.602;23.468;2022-08-18T08:30:28;6.60;;;5.22;;
6203;SDS011;3135;42.602;23.468;2022-08-18T08:35:40;6.13;;;4.30;;
6203;SDS011;3135;42.602;23.468;2022-08-18T08:41:30;4.97;;;4.25;;
6203;SDS011;3135;42.602;23.468;2022-08-18T08:46:51;7.57;;;4.03;;
6203;SDS011;3135;42.602;23.468;2022-08-18T08:49:34;5.55;;;4.13;;
6203;SDS011;3135;42.602;23.468;2022-08-18T08:52:15;5.15;;;4.20;;
6203;SDS011;3135;42.602;23.468;2022-08-18T08:54:55;6.43;;;4.07;;
6203;SDS011;3135;42.602;23.468;2022-08-18T08:57:32;3.65;;;3.40;;
6203;SDS011;3135;42.602;23.468;2022-08-18T09:00:03;5.60;;;3.75;;
6203;SDS011;3135;42.602;23.468;2022-08-18T09:02:39;8.03;;;4.00;;
6203;SDS011;3135;42.602;23.468;2022-08-18T09:05:29;4.70;;;4.05;;
6203;SDS011;3135;42.602;23.468;2022-08-18T09:08:13;4.55;;;4.03;;
6203;SDS011;3135;42.602;23.468;2022-08-18T09:16:44;3.60;;;3.30;;
6203;SDS011;3135;42.602;23.468;2022-08-18T09:28:17;4.85;;;3.35;;
6203;SDS011;3135;42.602;23.468;2022-08-18T09:38:57;3.80;;;3.10;;
6203;SDS011;3135;42.602;23.468;2022-08-18T09:41:50;3.67;;;3.40;;
6203;SDS011;3135;42.602;23.468;2022-08-18T09:47:09;4.32;;;3.35;;
6203;SDS011;3135;42.602;23.468;2022-08-18T09:52:54;3.70;;;3.40;;
6203;SDS011;3135;42.602;23.468;2022-08-18T09:59:53;3.77;;;3.30;;
6203;SDS011;3135;42.602;23.468;2022-08-18T10:07:50;4.43;;;3.20;;
6203;SDS011;3135;42.602;23.468;2022-08-18T10:24:40;4.70;;;3.10;;
6203;SDS011;3135;42.602;23.468;2022-08-18T10:27:10;5.80;;;3.53;;
6203;SDS011;3135;42.602;23.468;2022-08-18T10:29:56;3.78;;;3.35;;
6203;SDS011;3135;42.602;23.468;2022-08-18T10:32:34;4.20;;;3.75;;
6203;SDS011;3135;42.602;23.468;2022-08-18T10:35:03;3.90;;;3.60;;
6203;SDS011;3135;42.602;23.468;2022-08-18T10:37:43;3.92;;;3.58;;
6203;SDS011;3135;42.602;23.468;2022-08-18T10:40:16;4.10;;;3.70;;
6203;SDS011;3135;42.602;23.468;2022-08-18T10:42:50;3.80;;;3.50;;
6203;SDS011;3135;42.602;23.468;2022-08-18T10:45:43;3.85;;;3.55;;
6203;SDS011;3135;42.602;23.468;2022-08-18T10:53:21;4.35;;;3.95;;
6203;SDS011;3135;42.602;23.468;2022-08-18T10:55:49;3.50;;;3.30;;
6203;SDS011;3135;42.602;23.468;2022-08-18T11:03:59;3.55;;;3.13;;
6203;SDS011;3135;42.602;23.468;2022-08-18T11:06:35;3.60;;;3.30;;
6203;SDS011;3135;42.602;23.468;2022-08-18T11:09:03;4.03;;;3.72;;
6203;SDS011;3135;42.602;23.468;2022-08-18T11:11:42;3.97;;;3.67;;
6203;SDS011;3135;42.602;23.468;2022-08-18T11:17:07;4.07;;;3.78;;
6203;SDS011;3135;42.602;23.468;2022-08-18T11:19:48;4.82;;;3.70;;
6203;SDS011;3135;42.602;23.468;2022-08-18T11:22:29;5.45;;;3.67;;
6203;SDS011;3135;42.602;23.468;2022-08-18T11:24:57;4.35;;;4.05;;
6203;SDS011;3135;42.602;23.468;2022-08-18T11:27:24;5.40;;;4.03;;
6203;SDS011;3135;42.602;23.468;2022-08-18T11:29:52;4.00;;;3.00;;
6203;SDS011;3135;42.602;23.468;2022-08-18T11:34:48;4.35;;;3.60;;
6203;SDS011;3135;42.602;23.468;2022-08-18T11:39:48;3.53;;;3.33;;
6203;SDS011;3135;42.602;23.468;2022-08-18T11:42:17;4.50;;;3.88;;
6203;SDS011;3135;42.602;23.468;2022-08-18T11:44:50;3.90;;;3.60;;
6203;SDS011;3135;42.602;23.468;2022-08-18T11:47:20;4.80;;;3.60;;
6203;SDS011;3135;42.602;23.468;2022-08-18T11:49:52;5.22;;;4.68;;
6203;SDS011;3135;42.602;23.468;2022-08-18T11:52:23;9.52;;;5.25;;
6203;SDS011;3135;42.602;23.468;2022-08-18T11:54:51;4.30;;;4.00;;
6203;SDS011;3135;42.602;23.468;2022-08-18T12:00:41;5.20;;;4.10;;
6203;SDS011;3135;42.602;23.468;2022-08-18T12:08:27;4.20;;;3.60;;
6203;SDS011;3135;42.602;23.468;2022-08-18T12:11:04;4.37;;;3.50;;
6203;SDS011;3135;42.602;23.468;2022-08-18T12:13:39;3.92;;;3.53;;
6203;SDS011;3135;42.602;23.468;2022-08-18T12:16:07;3.70;;;3.40;;
6203;SDS011;3135;42.602;23.468;2022-08-18T12:18:34;4.67;;;3.80;;
6203;SDS011;3135;42.602;23.468;2022-08-18T12:21:00;4.97;;;3.20;;
6203;SDS011;3135;42.602;23.468;2022-08-18T12:23:26;3.30;;;3.10;;
6203;SDS011;3135;42.602;23.468;2022-08-18T12:25:52;4.00;;;3.53;;
6203;SDS011;3135;42.602;23.468;2022-08-18T12:28:18;4.60;;;3.60;;
6203;SDS011;3135;42.602;23.468;2022-08-18T12:30:45;3.33;;;3.03;;
6203;SDS011;3135;42.602;23.468;2022-08-18T12:33:10;4.00;;;3.50;;
6203;SDS011;3135;42.602;23.468;2022-08-18T12:35:36;3.43;;;3.23;;
6203;SDS011;3135;42.602;23.468;2022-08-18T12:38:01;3.67;;;3.40;;
6203;SDS011;3135;42.602;23.468;2022-08-18T12:40:27;3.50;;;3.30;;
6203;SDS011;3135;42.602;23.468;2022-08-18T12:42:53;3.67;;;3.10;;
6203;SDS011;3135;42.602;23.468;2022-08-18T12:45:18;3.87;;;3.10;;
6203;SDS011;3135;42.602;23.468;2022-08-18T12:47:44;3.20;;;3.00;;
6203;SDS011;3135;42.602;23.468;2022-08-18T12:50:10;2.97;;;2.77;;
6203;SDS011;3135;42.602;23.468;2022-08-18T12:52:36;3.43;;;3.20;;
6203;SDS011;3135;42.602;23.468;2022-08-18T12:55:02;3.30;;;3.00;;
6203;SDS011;3135;42.602;23.468;2022-08-18T12:57:27;6.28;;;3.28;;
6203;SDS011;3135;42.602;23.468;2022-08-18T12:59:53;3.47;;;3.10;;
6203;SDS011;3135;42.602;23.468;2022-08-18T13:02:19;4.70;;;3.25;;
6203;SDS011;3135;42.602;23.468;2022-08-18T13:04:45;4.10;;;3.33;;
6203;SDS011;3135;42.602;23.468;2022-08-18T13:07:11;4.43;;;2.63;;
6203;SDS011;3135;42.602;23.468;2022-08-18T13:09:38;3.35;;;3.15;;
6203;SDS011;3135;42.602;23.468;2022-08-18T13:12:04;4.63;;;3.40;;
6203;SDS011;3135;42.602;23.468;2022-08-18T13:14:30;3.50;;;3.20;;
6203;SDS011;3135;42.602;23.468;2022-08-18T13:16:56;4.18;;;3.50;;
6203;SDS011;3135;42.602;23.468;2022-08-18T13:19:21;3.70;;;3.50;;
6203;SDS011;3135;42.602;23.468;2022-08-18T13:21:47;3.22;;;3.03;;
6203;SDS011;3135;42.602;23.468;2022-08-18T13:24:12;4.00;;;3.50;;
6203;SDS011;3135;42.602;23.468;2022-08-18T13:26:40;4.20;;;3.25;;
6203;SDS011;3135;42.602;23.468;2022-08-18T13:29:07;3.55;;;3.35;;
6203;SDS011;3135;42.602;23.468;2022-08-18T13:31:33;6.68;;;3.38;;
6203;SDS011;3135;42.602;23.468;2022-08-18T13:33:59;3.63;;;3.43;;
6203;SDS011;3135;42.602;23.468;2022-08-18T13:36:26;4.70;;;4.13;;
6203;SDS011;3135;42.602;23.468;2022-08-18T13:39:08;3.60;;;3.30;;
6203;SDS011;3135;42.602;23.468;2022-08-18T13:41:35;3.72;;;3.40;;
6203;SDS011;3135;42.602;23.468;2022-08-18T13:44:00;4.17;;;3.17;;
6203;SDS011;3135;42.602;23.468;2022-08-18T13:46:26;6.23;;;3.30;;
6203;SDS011;3135;42.602;23.468;2022-08-18T13:48:51;3.75;;;3.50;;
6203;SDS011;3135;42.602;23.468;2022-08-18T13:51:18;3.90;;;3.50;;
6203;SDS011;3135;42.602;23.468;2022-08-18T13:53:47;3.87;;;3.57;;
6203;SDS011;3135;42.602;23.468;2022-08-18T13:56:13;3.80;;;3.50;;
6203;SDS011;3135;42.602;23.468;2022-08-18T13:58:38;3.87;;;3.57;;
6203;SDS011;3135;42.602;23.468;2022-08-18T14:01:05;4.10;;;3.70;;
6203;SDS011;3135;42.602;23.468;2022-08-18T14:03:31;6.47;;;4.03;;
6203;SDS011;3135;42.602;23.468;2022-08-18T14:05:59;4.78;;;3.70;;
6203;SDS011;3135;42.602;23.468;2022-08-18T14:08:27;3.97;;;3.60;;
6203;SDS011;3135;42.602;23.468;2022-08-18T14:10:53;4.63;;;3.90;;
6203;SDS011;3135;42.602;23.468;2022-08-18T14:13:21;4.18;;;3.88;;
6203;SDS011;3135;42.602;23.468;2022-08-18T14:15:49;4.30;;;3.90;;
6203;SDS011;3135;42.602;23.468;2022-08-18T14:18:15;4.00;;;3.60;;
6203;SDS011;3135;42.602;23.468;2022-08-18T14:20:41;4.50;;;4.10;;
6203;SDS011;3135;42.602;23.468;2022-08-18T14:23:25;4.00;;;3.70;;
6203;SDS011;3135;42.602;23.468;2022-08-18T14:26:09;4.32;;;3.88;;
6203;SDS011;3135;42.602;23.468;2022-08-18T14:28:53;5.27;;;3.90;;
6203;SDS011;3135;42.602;23.468;2022-08-18T14:31:19;4.40;;;4.10;;
6203;SDS011;3135;42.602;23.468;2022-08-18T14:33:45;3.70;;;3.40;;
6203;SDS011;3135;42.602;23.468;2022-08-18T14:36:11;3.60;;;3.30;;
6203;SDS011;3135;42.602;23.468;2022-08-18T14:38:37;3.95;;;3.65;;
6203;SDS011;3135;42.602;23.468;2022-08-18T14:41:04;3.78;;;3.47;;
6203;SDS011;3135;42.602;23.468;2022-08-18T14:43:31;5.07;;;4.60;;
6203;SDS011;3135;42.602;23.468;2022-08-18T14:46:00;4.68;;;4.38;;
6203;SDS011;3135;42.602;23.468;2022-08-18T14:48:29;4.63;;;3.47;;
6203;SDS011;3135;42.602;23.468;2022-08-18T14:50:55;6.07;;;3.65;;
6203;SDS011;3135;42.602;23.468;2022-08-18T14:53:24;4.63;;;3.72;;
6203;SDS011;3135;42.602;23.468;2022-08-18T14:55:52;5.38;;;4.88;;
6203;SDS011;3135;42.602;23.468;2022-08-18T14:58:19;5.45;;;5.03;;
6203;SDS011;3135;42.602;23.468;2022-08-18T15:00:57;4.38;;;3.58;;
6203;SDS011;3135;42.602;23.468;2022-08-18T15:03:26;4.30;;;3.80;;
6203;SDS011;3135;42.602;23.468;2022-08-18T15:05:53;3.75;;;3.40;;
6203;SDS011;3135;42.602;23.468;2022-08-18T15:08:19;6.23;;;3.63;;
6203;SDS011;3135;42.602;23.468;2022-08-18T15:10:45;3.80;;;3.50;;
6203;SDS011;3135;42.602;23.468;2022-08-18T15:13:11;3.65;;;3.35;;
6203;SDS011;3135;42.602;23.468;2022-08-18T15:15:37;3.90;;;3.50;;
6203;SDS011;3135;42.602;23.468;2022-08-18T15:18:03;3.63;;;3.03;;
6203;SDS011;3135;42.602;23.468;2022-08-18T15:20:28;3.67;;;3.38;;
6203;SDS011;3135;42.602;23.468;2022-08-18T15:22:57;3.90;;;3.60;;
6203;SDS011;3135;42.602;23.468;2022-08-18T15:25:46;3.60;;;3.30;;
6203;SDS011;3135;42.602;23.468;2022-08-18T15:28:14;3.83;;;3.60;;
6203;SDS011;3135;42.602;23.468;2022-08-18T15:30:44;3.60;;;3.40;;
6203;SDS011;3135;42.602;23.468;2022-08-18T15:33:11;3.90;;;3.60;;
6203;SDS011;3135;42.602;23.468;2022-08-18T15:35:39;3.67;;;3.38;;
6203;SDS011;3135;42.602;23.468;2022-08-18T15:38:08;4.10;;;3.70;;
6203;SDS011;3135;42.602;23.468;2022-08-18T15:40:39;3.90;;;3.60;;
6203;SDS011;3135;42.602;23.468;2022-08-18T15:43:13;4.20;;;3.80;;
6203;SDS011;3135;42.602;23.468;2022-08-18T15:45:40;5.28;;;3.60;;
6203;SDS011;3135;42.602;23.468;2022-08-18T15:48:09;3.75;;;3.45;;
6203;SDS011;3135;42.602;23.468;2022-08-18T15:50:35;4.53;;;3.50;;
6203;SDS011;3135;42.602;23.468;2022-08-18T15:53:02;4.78;;;3.72;;
6203;SDS011;3135;42.602;23.468;2022-08-18T15:55:30;4.72;;;3.90;;
6203;SDS011;3135;42.602;23.468;2022-08-18T15:57:57;4.90;;;3.90;;
6203;SDS011;3135;42.602;23.468;2022-08-18T16:00:24;4.35;;;3.88;;
6203;SDS011;3135;42.602;23.468;2022-08-18T16:02:52;4.13;;;3.72;;
6203;SDS011;3135;42.602;23.468;2022-08-18T16:05:25;6.22;;;3.58;;
6203;SDS011;3135;42.602;23.468;2022-08-18T16:07:53;4.38;;;3.97;;
6203;SDS011;3135;42.602;23.468;2022-08-18T16:10:21;4.75;;;4.10;;
6203;SDS011;3135;42.602;23.468;2022-08-18T16:12:49;4.18;;;3.83;;
6203;SDS011;3135;42.602;23.468;2022-08-18T16:15:16;6.28;;;4.60;;
6203;SDS011;3135;42.602;23.468;2022-08-18T16:17:43;4.30;;;3.97;;
6203;SDS011;3135;42.602;23.468;2022-08-18T16:20:09;4.57;;;4.07;;
6203;SDS011;3135;42.602;23.468;2022-08-18T16:22:35;6.43;;;4.18;;
6203;SDS011;3135;42.602;23.468;2022-08-18T16:25:03;4.60;;;4.20;;
6203;SDS011;3135;42.602;23.468;2022-08-18T16:27:32;4.45;;;4.05;;
6203;SDS011;3135;42.602;23.468;2022-08-18T16:30:05;4.50;;;4.10;;
6203;SDS011;3135;42.602;23.468;2022-08-18T16:32:31;5.10;;;4.22;;
6203;SDS011;3135;42.602;23.468;2022-08-18T16:34:57;4.50;;;4.10;;
6203;SDS011;3135;42.602;23.468;2022-08-18T16:37:23;4.80;;;4.40;;
6203;SDS011;3135;42.602;23.468;2022-08-18T16:39:50;4.57;;;4.20;;
6203;SDS011;3135;42.602;23.468;2022-08-18T16:42:17;7.88;;;4.47;;
6203;SDS011;3135;42.602;23.468;2022-08-18T16:44:42;4.30;;;3.90;;
6203;SDS011;3135;42.602;23.468;2022-08-18T16:47:09;4.97;;;4.57;;
6203;SDS011;3135;42.602;23.468;2022-08-18T16:49:37;5.13;;;4.22;;
6203;SDS011;3135;42.602;23.468;2022-08-18T16:52:03;5.60;;;5.15;;
6203;SDS011;3135;42.602;23.468;2022-08-18T16:54:30;6.00;;;4.95;;
6203;SDS011;3135;42.602;23.468;2022-08-18T16:56:57;7.15;;;5.40;;
6203;SDS011;3135;42.602;23.468;2022-08-18T16:59:23;4.85;;;4.47;;
6203;SDS011;3135;42.602;23.468;2022-08-18T17:02:07;6.65;;;4.75;;
6203;SDS011;3135;42.602;23.468;2022-08-18T17:04:51;4.88;;;4.40;;
6203;SDS011;3135;42.602;23.468;2022-08-18T17:07:17;6.27;;;4.67;;
6203;SDS011;3135;42.602;23.468;2022-08-18T17:09:42;6.40;;;4.67;;
6203;SDS011;3135;42.602;23.468;2022-08-18T17:12:08;4.88;;;4.47;;
6203;SDS011;3135;42.602;23.468;2022-08-18T17:14:35;4.63;;;4.23;;
6203;SDS011;3135;42.602;23.468;2022-08-18T17:17:01;5.22;;;4.40;;
6203;SDS011;3135;42.602;23.468;2022-08-18T17:19:29;6.35;;;4.50;;
6203;SDS011;3135;42.602;23.468;2022-08-18T17:21:58;4.43;;;4.00;;
6203;SDS011;3135;42.602;23.468;2022-08-18T17:24:25;4.40;;;4.10;;
6203;SDS011;3135;42.602;23.468;2022-08-18T17:29:36;5.18;;;4.32;;
6203;SDS011;3135;42.602;23.468;2022-08-18T17:32:26;8.63;;;4.20;;
6203;SDS011;3135;42.602;23.468;2022-08-18T17:35:15;5.97;;;4.10;;
6203;SDS011;3135;42.602;23.468;2022-08-18T17:37:57;5.60;;;4.05;;
6203;SDS011;3135;42.602;23.468;2022-08-18T17:40:38;4.65;;;4.15;;
6203;SDS011;3135;42.602;23.468;2022-08-18T17:43:20;5.25;;;4.50;;
6203;SDS011;3135;42.602;23.468;2022-08-18T17:45:51;5.10;;;4.60;;
6203;SDS011;3135;42.602;23.468;2022-08-18T17:48:40;5.78;;;4.70;;
6203;SDS011;3135;42.602;23.468;2022-08-18T17:51:19;11.20;;;6.10;;
6203;SDS011;3135;42.602;23.468;2022-08-18T17:53:59;5.25;;;4.75;;
6203;SDS011;3135;42.602;23.468;2022-08-18T17:56:41;4.43;;;4.03;;
6203;SDS011;3135;42.602;23.468;2022-08-18T17:59:12;4.68;;;4.28;;
6203;SDS011;3135;42.602;23.468;2022-08-18T18:01:45;4.32;;;3.92;;